Time;durP1;ratioP1;P1;durP2;ratioP2;P2;SDS_P1;SDS_P2;PMS_P1;PMS_P2;Temp;Humidity;BMP_temperature;BMP_pressure;BME280_temperature;BME280_humidity;BME280_pressure;Samples;Min_cycle;Max_cycle;Signal;HPM_P1;HPM_P2
2023/08/05 00:00:14;;;;;;;6.03;3.70;;;;;;;13.93;100.00;100807.53;681465;28;1766;-62
2023/08/05 00:00:35;;;;;;;7.07;3.90;;;;;;;13.93;100.00;100802.25;678793;28;1246;-62
2023/08/05 00:00:57;;;;;;;6.50;3.63;;;;;;;13.95;100.00;100797.84;679012;29;921;-63
2023/08/05 00:01:17;;;;;;;6.15;3.95;;;;;;;13.96;100.00;100797.81;677017;28;4493;-63
2023/08/05 00:01:37;;;;;;;5.80;3.83;;;;;;;13.95;100.00;100797.84;678174;29;1099;-62
2023/08/05 00:01:58;;;;;;;6.20;3.90;;;;;;;13.95;100.00;100801.31;678136;29;854;-62
2023/08/05 00:02:18;;;;;;;5.57;3.67;;;;;;;13.93;100.00;100797.88;676482;29;1897;-63
2023/08/05 00:02:39;;;;;;;6.43;3.60;;;;;;;13.94;100.00;100807.50;676880;29;918;-62
2023/08/05 00:02:59;;;;;;;8.23;4.00;;;;;;;13.94;100.00;100796.97;679278;29;1086;-62
2023/08/05 00:03:20;;;;;;;7.53;4.03;;;;;;;13.95;100.00;100803.09;677072;29;1808;-62
2023/08/05 00:03:41;;;;;;;8.65;4.10;;;;;;;13.94;100.00;100807.50;678557;29;861;-62
2023/08/05 00:04:01;;;;;;;7.53;3.83;;;;;;;13.93;100.00;100805.75;678132;29;1371;-62
2023/08/05 00:04:22;;;;;;;5.80;3.70;;;;;;;13.94;100.00;100801.34;676732;28;4443;-63
2023/08/05 00:04:42;;;;;;;6.47;3.60;;;;;;;13.93;100.00;100800.50;677368;29;917;-63
2023/08/05 00:05:03;;;;;;;7.57;4.00;;;;;;;13.92;100.00;100804.00;678397;29;1781;-62
2023/08/05 00:05:24;;;;;;;6.40;3.80;;;;;;;13.91;100.00;100799.63;678173;29;1696;-62
2023/08/05 00:05:44;;;;;;;7.15;4.20;;;;;;;13.93;100.00;100808.38;678538;29;722;-63
2023/08/05 00:06:05;;;;;;;5.80;3.93;;;;;;;13.94;100.00;100802.22;678734;29;976;-62
2023/08/05 00:06:25;;;;;;;6.18;4.10;;;;;;;13.96;100.00;100792.53;678468;29;1486;-62
2023/08/05 00:06:45;;;;;;;6.80;4.13;;;;;;;13.95;100.00;100793.44;677963;29;1024;-63
2023/08/05 00:07:06;;;;;;;5.90;3.77;;;;;;;13.93;100.00;100792.59;677716;29;1183;-62
2023/08/05 00:07:26;;;;;;;5.38;3.70;;;;;;;13.91;100.00;100794.38;678001;28;4481;-63
2023/08/05 00:07:46;;;;;;;5.97;3.80;;;;;;;13.91;100.00;100796.16;677957;29;1128;-63
2023/08/05 00:08:07;;;;;;;5.50;3.58;;;;;;;13.88;100.00;100797.06;675990;29;1850;-62
2023/08/05 00:08:27;;;;;;;5.97;3.97;;;;;;;13.87;100.00;100795.31;678551;29;1542;-63
2023/08/05 00:08:48;;;;;;;6.80;4.27;;;;;;;13.88;100.00;100797.06;675227;29;1160;-62
2023/08/05 00:09:08;;;;;;;7.88;4.28;;;;;;;13.87;100.00;100797.94;673736;29;1744;-62
2023/08/05 00:09:28;;;;;;;6.30;4.00;;;;;;;13.87;100.00;100797.09;675953;29;874;-63
2023/08/05 00:09:49;;;;;;;6.78;3.90;;;;;;;13.86;100.00;100792.72;676145;29;906;-63
2023/08/05 00:10:09;;;;;;;6.23;4.00;;;;;;;13.86;100.00;100793.59;677903;29;1999;-62
2023/08/05 00:10:30;;;;;;;5.70;3.80;;;;;;;13.85;100.00;100794.50;678793;28;4667;-63
2023/08/05 00:10:51;;;;;;;5.85;3.70;;;;;;;13.85;100.00;100794.50;677989;29;838;-63
2023/08/05 00:11:11;;;;;;;6.03;3.87;;;;;;;13.85;100.00;100791.88;677654;29;1878;-62
2023/08/05 00:11:34;;;;;;;6.70;3.90;;;;;;;13.86;100.00;100793.59;678581;29;901;-63
2023/08/05 00:11:54;;;;;;;5.88;3.90;;;;;;;13.87;100.00;100791.84;677764;29;1398;-63
2023/08/05 00:12:14;;;;;;;5.53;4.13;;;;;;;13.87;100.00;100787.44;677618;29;2679;-62
2023/08/05 00:12:35;;;;;;;6.95;4.10;;;;;;;13.88;100.00;100797.06;678349;28;941;-62
2023/08/05 00:12:55;;;;;;;6.67;3.97;;;;;;;13.87;100.00;100790.06;677672;29;873;-63
2023/08/05 00:13:16;;;;;;;6.60;3.75;;;;;;;13.88;100.00;100790.94;676525;28;4340;-62
2023/08/05 00:13:37;;;;;;;5.82;3.90;;;;;;;13.86;100.00;100793.59;680857;28;1804;-62
2023/08/05 00:13:57;;;;;;;5.13;3.60;;;;;;;13.85;100.00;100793.63;680083;29;850;-63
2023/08/05 00:14:17;;;;;;;6.05;3.70;;;;;;;13.84;100.00;100798.00;678731;29;960;-62
2023/08/05 00:14:38;;;;;;;6.53;3.77;;;;;;;13.84;100.00;100794.53;681557;29;854;-62
2023/08/05 00:15:00;;;;;;;7.03;4.03;;;;;;;13.82;100.00;100797.19;680506;29;1141;-63
2023/08/05 00:15:20;;;;;;;6.03;4.13;;;;;;;13.81;100.00;100798.06;679369;28;1791;-63
2023/08/05 00:15:41;;;;;;;6.17;4.00;;;;;;;13.81;100.00;100791.94;677889;29;923;-62
2023/08/05 00:16:02;;;;;;;6.30;3.90;;;;;;;13.79;100.00;100798.09;677981;29;788;-62
2023/08/05 00:16:22;;;;;;;6.35;3.67;;;;;;;13.80;100.00;100801.56;676479;29;4440;-62
2023/08/05 00:16:43;;;;;;;6.57;3.80;;;;;;;13.78;100.00;100796.34;678094;29;1188;-62
2023/08/05 00:17:03;;;;;;;7.82;3.90;;;;;;;13.80;100.00;100798.94;678979;29;1435;-63
2023/08/05 00:17:24;;;;;;;7.10;3.90;;;;;;;13.79;100.00;100802.47;676029;29;1076;-62
2023/08/05 00:17:44;;;;;;;5.85;3.92;;;;;;;13.79;100.00;100797.22;679041;29;941;-62
2023/08/05 00:18:05;;;;;;;5.43;3.77;;;;;;;13.81;100.00;100803.31;678614;29;981;-62
2023/08/05 00:18:25;;;;;;;7.32;3.70;;;;;;;13.79;100.00;100792.84;676993;29;1763;-63
2023/08/05 00:18:45;;;;;;;7.53;3.80;;;;;;;13.78;100.00;100798.13;678421;29;952;-63
2023/08/05 00:19:06;;;;;;;5.83;3.80;;;;;;;13.81;100.00;100800.69;678662;29;1641;-64
2023/08/05 00:19:26;;;;;;;6.35;3.83;;;;;;;13.80;100.00;100798.94;676977;28;4431;-63
2023/08/05 00:19:47;;;;;;;6.20;3.67;;;;;;;13.78;100.00;100806.00;678737;29;3750;-63
2023/08/05 00:20:12;;;;;;;5.40;3.80;;;;;;;13.76;100.00;100802.50;678514;29;936;-63
2023/08/05 00:20:32;;;;;;;6.43;4.05;;;;;;;13.75;100.00;100806.06;677727;29;1240;-62
2023/08/05 00:20:52;;;;;;;5.57;3.80;;;;;;;13.74;100.00;100804.31;677996;29;1402;-62
2023/08/05 00:21:13;;;;;;;5.75;3.75;;;;;;;13.75;100.00;100808.69;678216;29;1922;-64
2023/08/05 00:21:33;;;;;;;5.90;3.97;;;;;;;13.73;100.00;100797.31;677200;29;1195;-62
2023/08/05 00:21:53;;;;;;;5.65;3.70;;;;;;;13.72;100.00;100806.06;677895;29;1179;-62
2023/08/05 00:22:14;;;;;;;6.00;3.77;;;;;;;13.72;100.00;100800.81;677021;28;4566;-64
2023/08/05 00:22:34;;;;;;;6.53;3.90;;;;;;;13.70;100.00;100798.22;678638;29;1052;-62
2023/08/05 00:22:55;;;;;;;5.70;3.87;;;;;;;13.70;100.00;100800.84;678387;29;902;-62
2023/08/05 00:23:15;;;;;;;6.28;3.67;;;;;;;13.70;100.00;100802.63;677770;29;1559;-63
2023/08/05 00:23:36;;;;;;;6.37;3.60;;;;;;;13.72;100.00;100806.06;680215;29;909;-63
2023/08/05 00:23:56;;;;;;;5.50;3.63;;;;;;;13.70;100.00;100806.09;680013;29;1251;-62
2023/08/05 00:24:17;;;;;;;5.53;3.60;;;;;;;13.69;100.00;100803.50;680342;28;1545;-63
2023/08/05 00:24:37;;;;;;;6.17;3.50;;;;;;;13.64;100.00;100803.59;680363;29;1007;-63
2023/08/05 00:24:57;;;;;;;6.32;3.72;;;;;;;13.62;100.00;100800.09;679547;28;1419;-63
2023/08/05 00:25:18;;;;;;;6.53;3.87;;;;;;;13.60;100.00;100796.66;676545;29;4591;-63
2023/08/05 00:25:38;;;;;;;6.22;3.97;;;;;;;13.59;100.00;100802.78;676936;29;886;-63
2023/08/05 00:25:58;;;;;;;6.37;3.93;;;;;;;13.58;100.00;100799.28;677457;29;1425;-63
2023/08/05 00:26:19;;;;;;;6.97;4.00;;;;;;;13.57;100.00;100797.56;677473;29;2340;-63
2023/08/05 00:26:39;;;;;;;6.43;3.95;;;;;;;13.56;100.00;100806.31;677626;29;991;-63
2023/08/05 00:26:59;;;;;;;6.40;4.10;;;;;;;13.56;100.00;100802.84;674358;29;1487;-63
2023/08/05 00:27:20;;;;;;;5.70;4.00;;;;;;;13.56;100.00;100806.31;677658;29;1734;-63
2023/08/05 00:27:40;;;;;;;6.00;3.70;;;;;;;13.56;100.00;100801.06;675648;29;969;-62
2023/08/05 00:28:01;;;;;;;5.80;3.80;;;;;;;13.57;100.00;100802.81;672770;29;806;-63
2023/08/05 00:28:21;;;;;;;6.38;3.75;;;;;;;13.57;100.00;100805.44;672631;29;4358;-63
2023/08/05 00:28:42;;;;;;;6.43;3.90;;;;;;;13.58;100.00;100803.66;672807;29;1177;-62
2023/08/05 00:29:03;;;;;;;6.95;3.70;;;;;;;13.58;100.00;100806.28;671506;29;799;-62
2023/08/05 00:29:24;;;;;;;7.43;3.90;;;;;;;13.56;100.00;100803.69;673628;29;2111;-63
2023/08/05 00:29:46;;;;;;;6.63;4.07;;;;;;;13.57;100.00;100801.94;675290;29;944;-63
2023/08/05 00:30:07;;;;;;;6.22;4.05;;;;;;;13.56;100.00;100805.47;675518;29;1224;-63
2023/08/05 00:30:27;;;;;;;7.40;3.70;;;;;;;13.57;100.00;100808.06;675750;29;2661;-62
2023/08/05 00:30:48;;;;;;;6.95;3.88;;;;;;;13.56;100.00;100806.31;676383;29;806;-63
2023/08/05 00:31:09;;;;;;;7.17;3.83;;;;;;;13.57;100.00;100804.56;674523;29;2357;-64
2023/08/05 00:31:29;;;;;;;6.90;3.90;;;;;;;13.57;100.00;100804.56;672822;29;4410;-63
2023/08/05 00:31:51;;;;;;;5.93;3.67;;;;;;;13.57;100.00;100802.81;674668;29;1219;-63
2023/08/05 00:32:11;;;;;;;5.38;3.45;;;;;;;13.58;100.00;100799.28;673378;29;2220;-63
2023/08/05 00:32:34;;;;;;;6.17;3.63;;;;;;;13.59;100.00;100802.78;675500;29;1005;-63
2023/08/05 00:32:54;;;;;;;5.95;3.70;;;;;;;13.60;100.00;100801.91;675101;29;938;-63
2023/08/05 00:33:14;;;;;;;5.65;3.92;;;;;;;13.60;100.00;100799.28;674645;29;916;-62
2023/08/05 00:33:35;;;;;;;5.27;3.97;;;;;;;13.59;100.00;100801.00;676824;29;1268;-63
2023/08/05 00:33:55;;;;;;;5.22;4.03;;;;;;;13.60;100.00;100800.13;677462;29;926;-63
2023/08/05 00:34:16;;;;;;;5.63;3.80;;;;;;;13.64;100.00;100800.97;674464;29;4426;-62
2023/08/05 00:34:36;;;;;;;5.50;3.70;;;;;;;13.65;100.00;100804.44;676632;29;941;-62
2023/08/05 00:34:56;;;;;;;6.55;4.03;;;;;;;13.60;100.00;100797.50;675912;29;1203;-62
2023/08/05 00:35:18;;;;;;;6.53;3.92;;;;;;;13.58;100.00;100796.66;673023;29;2272;-62
2023/08/05 00:35:39;;;;;;;6.10;3.80;;;;;;;13.57;100.00;100794.94;674639;29;852;-62
2023/08/05 00:36:00;;;;;;;6.17;3.70;;;;;;;13.58;100.00;100798.41;674760;29;1303;-63
2023/08/05 00:36:21;;;;;;;6.85;3.78;;;;;;;13.58;100.00;100796.66;677140;29;1731;-63
2023/08/05 00:36:41;;;;;;;6.38;4.10;;;;;;;13.59;100.00;100797.53;678547;29;1547;-63
2023/08/05 00:37:02;;;;;;;8.43;4.40;;;;;;;13.58;100.00;100796.66;679485;29;771;-62
2023/08/05 00:37:23;;;;;;;6.68;4.20;;;;;;;13.58;100.00;100791.41;676723;29;4484;-63
2023/08/05 00:37:44;;;;;;;6.90;4.07;;;;;;;13.56;100.00;100790.56;678992;29;1187;-62
2023/08/05 00:38:04;;;;;;;6.38;3.72;;;;;;;13.56;100.00;100787.94;675901;29;1174;-62
2023/08/05 00:38:24;;;;;;;6.17;3.70;;;;;;;13.59;100.00;100790.50;671054;29;2293;-62
2023/08/05 00:38:45;;;;;;;5.50;3.77;;;;;;;13.59;100.00;100790.50;673513;29;1178;-62
2023/08/05 00:39:05;;;;;;;5.77;3.63;;;;;;;13.61;100.00;100793.13;674157;29;949;-63
2023/08/05 00:39:25;;;;;;;5.67;3.60;;;;;;;13.60;100.00;100784.38;672472;29;1739;-63
2023/08/05 00:39:46;;;;;;;5.82;3.63;;;;;;;13.60;100.00;100783.50;673947;29;1279;-63
2023/08/05 00:40:07;;;;;;;6.60;4.00;;;;;;;13.59;100.00;100785.25;675310;29;1703;-63
2023/08/05 00:40:27;;;;;;;6.07;3.97;;;;;;;13.59;100.00;100785.25;677696;29;4464;-63
2023/08/05 00:40:48;;;;;;;6.15;3.65;;;;;;;13.59;100.00;100780.00;677979;29;1331;-63
2023/08/05 00:41:08;;;;;;;9.10;4.40;;;;;;;13.59;100.00;100785.25;678788;29;1112;-63
2023/08/05 00:41:29;;;;;;;7.70;4.28;;;;;;;13.61;100.00;100780.00;678499;29;2985;-62
2023/08/05 00:41:50;;;;;;;5.50;3.65;;;;;;;13.60;100.00;100776.47;676778;29;1366;-63
2023/08/05 00:42:11;;;;;;;5.93;3.72;;;;;;;13.60;100.00;100778.25;674764;29;5661;-62
2023/08/05 00:42:31;;;;;;;6.67;3.80;;;;;;;13.60;100.00;100779.09;676448;29;976;-63
2023/08/05 00:42:52;;;;;;;6.57;3.60;;;;;;;13.60;100.00;100776.47;676024;29;1153;-63
2023/08/05 00:43:12;;;;;;;6.20;3.90;;;;;;;13.61;100.00;100778.22;670535;29;5080;-63
2023/08/05 00:43:32;;;;;;;9.20;4.05;;;;;;;13.60;100.00;100775.63;673668;29;806;-63
2023/08/05 00:43:53;;;;;;;9.83;4.13;;;;;;;13.61;100.00;100775.59;674806;29;1391;-63
2023/08/05 00:44:13;;;;;;;7.43;3.78;;;;;;;13.61;100.00;100783.47;673330;29;1116;-62
2023/08/05 00:44:34;;;;;;;6.70;3.60;;;;;;;13.63;100.00;100776.44;672571;29;1054;-63
2023/08/05 00:44:55;;;;;;;6.70;3.60;;;;;;;13.65;100.00;100779.03;670316;29;911;-63
2023/08/05 00:45:15;;;;;;;6.50;3.90;;;;;;;13.66;100.00;100778.16;672811;29;2059;-62
2023/08/05 00:45:35;;;;;;;5.28;3.42;;;;;;;13.66;100.00;100777.28;673607;29;720;-63
2023/08/05 00:45:59;;;;;;;6.13;3.58;;;;;;;13.65;100.00;100773.78;673136;29;934;-64
2023/08/05 00:46:22;;;;;;;6.07;3.53;;;;;;;13.66;100.00;100772.03;672292;29;4448;-63
2023/08/05 00:46:43;;;;;;;6.97;3.65;;;;;;;13.66;100.00;100777.28;673070;29;957;-62
2023/08/05 00:47:04;;;;;;;5.20;3.35;;;;;;;13.66;100.00;100774.66;674937;29;980;-62
2023/08/05 00:47:28;;;;;;;5.88;3.30;;;;;;;13.63;100.00;100771.19;674382;29;2026;-64
2023/08/05 00:47:49;;;;;;;6.23;3.30;;;;;;;13.60;100.00;100771.22;674730;29;1187;-63
2023/08/05 00:48:09;;;;;;;6.43;3.30;;;;;;;13.57;100.00;100771.28;676375;29;2289;-63
2023/08/05 00:48:30;;;;;;;6.10;3.30;;;;;;;13.56;100.00;100774.78;675426;29;905;-62
2023/08/05 00:48:52;;;;;;;5.97;3.50;;;;;;;13.56;100.00;100773.94;673460;29;886;-63
2023/08/05 00:49:13;;;;;;;5.50;3.58;;;;;;;13.56;100.00;100772.16;673261;29;4582;-63
2023/08/05 00:49:33;;;;;;;5.00;3.40;;;;;;;13.54;100.00;100771.34;673063;29;1416;-62
2023/08/05 00:49:58;;;;;;;6.77;3.90;;;;;;;13.50;100.00;100768.75;673573;29;922;-63
2023/08/05 00:50:19;;;;;;;5.50;3.83;;;;;;;13.48;100.00;100767.94;674370;29;1735;-63
2023/08/05 00:50:40;;;;;;;5.78;3.47;;;;;;;13.48;100.00;100766.16;676015;29;1919;-63
2023/08/05 00:51:02;;;;;;;5.00;3.43;;;;;;;13.48;100.00;100763.53;677048;29;1113;-63
2023/08/05 00:51:22;;;;;;;5.57;3.45;;;;;;;13.47;100.00;100772.28;676939;29;1917;-63
2023/08/05 00:51:42;;;;;;;6.95;3.70;;;;;;;13.45;100.00;100766.22;678403;29;929;-63
2023/08/05 00:52:05;;;;;;;7.87;3.90;;;;;;;13.44;100.00;100769.72;678020;29;938;-63
2023/08/05 00:52:26;;;;;;;6.65;3.53;;;;;;;13.44;100.00;100764.47;675131;29;4479;-62
2023/08/05 00:52:47;;;;;;;5.47;3.55;;;;;;;13.42;100.00;100767.13;675133;29;1366;-62
2023/08/05 00:53:07;;;;;;;5.37;3.40;;;;;;;13.44;100.00;100764.47;674093;29;1424;-63
2023/08/05 00:53:29;;;;;;;6.03;3.65;;;;;;;13.43;100.00;100768.88;674431;29;2365;-62
2023/08/05 00:53:50;;;;;;;6.93;3.83;;;;;;;13.42;100.00;100767.13;674360;29;836;-63
2023/08/05 00:54:11;;;;;;;6.50;3.30;;;;;;;13.42;100.00;100767.13;672159;29;2075;-63
2023/08/05 00:54:31;;;;;;;6.07;3.33;;;;;;;13.44;100.00;100764.47;674436;29;798;-63
2023/08/05 00:54:52;;;;;;;6.43;3.40;;;;;;;13.45;100.00;100763.59;675900;29;977;-63
2023/08/05 00:55:13;;;;;;;5.70;3.75;;;;;;;13.44;100.00;100765.38;673823;29;4415;-63
2023/08/05 00:55:35;;;;;;;5.78;3.55;;;;;;;13.41;100.00;100764.53;676097;29;857;-62
2023/08/05 00:55:56;;;;;;;7.13;3.70;;;;;;;13.40;100.00;100763.69;675402;29;1189;-63
2023/08/05 00:56:17;;;;;;;5.75;3.35;;;;;;;13.46;100.00;100762.72;677018;29;888;-63
2023/08/05 00:56:38;;;;;;;5.57;3.40;;;;;;;13.47;100.00;100760.94;675314;29;1433;-63
2023/08/05 00:56:59;;;;;;;5.45;3.50;;;;;;;13.47;100.00;100767.03;677634;29;1471;-63
2023/08/05 00:57:19;;;;;;;6.00;3.60;;;;;;;13.45;100.00;100766.22;676469;29;2373;-63
2023/08/05 00:57:40;;;;;;;6.07;3.63;;;;;;;13.43;100.00;100768.88;677117;29;1342;-63
2023/08/05 00:58:00;;;;;;;7.32;3.78;;;;;;;13.43;100.00;100770.59;677569;29;1296;-63
2023/08/05 00:58:21;;;;;;;6.07;3.57;;;;;;;13.41;100.00;100765.38;674387;28;4410;-63
2023/08/05 00:58:45;;;;;;;5.88;3.50;;;;;;;13.39;100.00;100771.56;676580;29;938;-63
2023/08/05 00:59:05;;;;;;;5.32;3.50;;;;;;;13.37;100.00;100768.09;678123;29;1236;-63
2023/08/05 00:59:27;;;;;;;6.32;3.33;;;;;;;13.37;100.00;100775.97;678526;28;2258;-63
2023/08/05 00:59:48;;;;;;;6.53;3.40;;;;;;;13.35;100.00;100770.75;677038;29;1400;-63
2023/08/05 01:00:09;;;;;;;5.30;3.50;;;;;;;13.34;100.00;100768.09;675704;29;1607;-63
2023/08/05 01:00:29;;;;;;;6.10;3.35;;;;;;;13.34;100.00;100768.09;673172;29;2049;-62
2023/08/05 01:00:50;;;;;;;5.57;3.10;;;;;;;13.34;100.00;100765.47;676531;29;825;-63
2023/08/05 01:01:10;;;;;;;6.10;3.10;;;;;;;13.32;100.00;100770.75;672983;29;2019;-63
2023/08/05 01:01:31;;;;;;;5.63;3.35;;;;;;;13.31;100.00;100768.16;672944;29;4222;-62
2023/08/05 01:01:51;;;;;;;5.43;3.50;;;;;;;13.33;100.00;100761.13;674760;29;1240;-62
2023/08/05 01:02:12;;;;;;;5.03;3.27;;;;;;;13.31;100.00;100760.28;674343;29;1809;-62
2023/08/05 01:02:32;;;;;;;4.87;3.20;;;;;;;13.31;100.00;100765.53;673836;29;952;-63
2023/08/05 01:02:53;;;;;;;5.97;3.25;;;;;;;13.33;100.00;100764.59;672375;29;1380;-62
2023/08/05 01:03:14;;;;;;;6.17;3.10;;;;;;;13.31;100.00;100766.38;670468;29;2614;-62
2023/08/05 01:03:35;;;;;;;5.47;3.10;;;;;;;13.31;100.00;100762.91;671023;29;1221;-63
2023/08/05 01:03:55;;;;;;;6.22;3.28;;;;;;;13.31;100.00;100770.78;673854;29;977;-62
2023/08/05 01:04:16;;;;;;;5.20;3.40;;;;;;;13.33;100.00;100761.97;671920;29;4951;-62
2023/08/05 01:04:37;;;;;;;4.95;3.40;;;;;;;13.36;100.00;100769.84;670683;29;1358;-63
2023/08/05 01:04:57;;;;;;;6.00;3.35;;;;;;;13.34;100.00;100773.34;673172;29;1022;-64
2023/08/05 01:05:20;;;;;;;5.00;3.07;;;;;;;13.33;100.00;100758.50;671630;29;2385;-63
2023/08/05 01:05:41;;;;;;;6.13;3.40;;;;;;;13.32;100.00;100759.38;671411;29;1345;-63
2023/08/05 01:06:05;;;;;;;7.75;3.40;;;;;;;13.27;100.00;100760.31;673060;29;874;-62
2023/08/05 01:06:28;;;;;;;6.63;3.40;;;;;;;13.25;100.00;100761.22;675677;29;2388;-63
2023/08/05 01:06:49;;;;;;;6.13;3.60;;;;;;;13.26;100.00;100760.31;678184;29;1289;-63
2023/08/05 01:07:11;;;;;;;5.53;3.42;;;;;;;13.25;100.00;100761.22;678767;29;1279;-62
2023/08/05 01:07:33;;;;;;;5.80;3.38;;;;;;;13.22;100.00;100770.03;678346;29;4754;-62
2023/08/05 01:07:55;;;;;;;5.10;3.20;;;;;;;13.21;100.00;100763.03;675119;28;1236;-62
2023/08/05 01:08:17;;;;;;;5.25;3.30;;;;;;;13.21;100.00;100763.03;676859;29;1862;-63
2023/08/05 01:08:38;;;;;;;5.55;3.30;;;;;;;13.23;100.00;100765.63;678848;29;1016;-63
2023/08/05 01:08:59;;;;;;;6.07;3.50;;;;;;;13.24;100.00;100765.59;677736;29;1505;-65
2023/08/05 01:09:20;;;;;;;6.23;3.50;;;;;;;13.24;100.00;100762.97;678400;29;2520;-63
2023/08/05 01:09:40;;;;;;;6.45;3.80;;;;;;;13.24;100.00;100762.13;679094;29;858;-62
2023/08/05 01:10:00;;;;;;;6.67;3.70;;;;;;;13.24;100.00;100768.22;679581;29;2183;-63
2023/08/05 01:10:21;;;;;;;6.78;3.47;;;;;;;13.23;100.00;100765.63;679036;28;4440;-63
2023/08/05 01:10:42;;;;;;;5.57;3.40;;;;;;;13.22;100.00;100766.50;681140;29;1931;-63
2023/08/05 01:11:03;;;;;;;6.82;3.60;;;;;;;13.21;100.00;100765.66;680455;29;825;-62
2023/08/05 01:11:24;;;;;;;5.90;3.42;;;;;;;13.22;100.00;100764.78;678748;28;1702;-63
2023/08/05 01:11:44;;;;;;;5.13;3.20;;;;;;;13.22;100.00;100767.41;679988;29;1375;-63
2023/08/05 01:12:05;;;;;;;6.80;3.53;;;;;;;13.23;100.00;100768.25;676687;29;746;-62
2023/08/05 01:12:28;;;;;;;6.57;3.30;;;;;;;13.22;100.00;100764.78;676235;29;2378;-62
2023/08/05 01:12:49;;;;;;;5.28;3.30;;;;;;;13.22;100.00;100770.03;678906;29;885;-62
2023/08/05 01:13:09;;;;;;;5.47;3.13;;;;;;;13.22;100.00;100771.75;677310;29;1546;-62
2023/08/05 01:13:30;;;;;;;5.05;3.30;;;;;;;13.21;100.00;100773.53;680228;28;4398;-62
2023/08/05 01:13:50;;;;;;;5.72;3.22;;;;;;;13.21;100.00;100768.28;681505;29;903;-63
2023/08/05 01:14:11;;;;;;;5.77;3.13;;;;;;;13.18;100.00;100773.56;677762;28;2489;-63
2023/08/05 01:14:31;;;;;;;6.00;3.33;;;;;;;13.17;100.00;100758.72;680927;29;932;-63
2023/08/05 01:14:52;;;;;;;7.17;3.53;;;;;;;13.18;100.00;100772.69;680896;29;1302;-63
2023/08/05 01:15:12;;;;;;;6.82;3.42;;;;;;;13.19;100.00;100769.19;677123;29;1787;-63
2023/08/05 01:15:32;;;;;;;6.53;3.20;;;;;;;13.19;100.00;100767.41;677316;29;1181;-62
2023/08/05 01:15:53;;;;;;;5.53;3.20;;;;;;;13.18;100.00;100770.06;678934;28;3729;-63
2023/08/05 01:16:13;;;;;;;5.82;3.22;;;;;;;13.16;100.00;100767.47;678781;28;4687;-63
2023/08/05 01:16:35;;;;;;;5.70;3.22;;;;;;;13.15;100.00;100764.88;677763;28;1544;-63
2023/08/05 01:16:55;;;;;;;5.87;3.33;;;;;;;13.13;100.00;100764.88;678040;29;1326;-62
2023/08/05 01:17:16;;;;;;;6.18;3.47;;;;;;;13.14;100.00;100760.50;676145;29;2445;-63
2023/08/05 01:17:37;;;;;;;6.57;3.40;;;;;;;13.12;100.00;100768.41;677181;29;1394;-63
2023/08/05 01:18:01;;;;;;;5.32;3.28;;;;;;;13.14;100.00;100771.00;676524;29;1261;-62
2023/08/05 01:18:24;;;;;;;6.10;3.38;;;;;;;13.12;100.00;100768.41;674549;29;2234;-63
2023/08/05 01:18:45;;;;;;;6.75;3.42;;;;;;;13.10;100.00;100768.41;674527;29;822;-62
2023/08/05 01:19:11;;;;;;;6.25;3.33;;;;;;;13.10;100.00;100765.78;669718;29;1304;-63
2023/08/05 01:19:33;;;;;;;6.45;3.50;;;;;;;13.09;100.00;100766.69;667508;29;6413;-63
2023/08/05 01:19:54;;;;;;;5.38;3.20;;;;;;;13.11;100.00;100774.53;667314;29;831;-62
2023/08/05 01:20:18;;;;;;;6.82;3.60;;;;;;;13.09;100.00;100769.31;668629;29;2557;-63
2023/08/05 01:20:45;;;;;;;5.63;3.30;;;;;;;13.09;100.00;100768.44;672150;29;1290;-62
2023/08/05 01:21:12;;;;;;;5.65;3.58;;;;;;;13.07;100.00;100775.47;674589;29;1891;-62
2023/08/05 01:21:41;;;;;;;5.28;3.47;;;;;;;13.05;100.00;100767.59;674053;29;1180;-62
2023/08/05 01:22:18;;;;;;;5.82;3.65;;;;;;;13.05;100.00;100772.00;676246;29;1205;-62
2023/08/05 01:22:41;;;;;;;5.57;3.42;;;;;;;13.05;100.00;100777.25;675739;29;6169;-62
2023/08/05 01:23:12;;;;;;;5.75;3.35;;;;;;;13.05;100.00;100774.63;678669;29;826;-62
2023/08/05 01:23:42;;;;;;;6.53;3.15;;;;;;;13.03;100.00;100776.38;678561;29;1035;-62
2023/08/05 01:24:18;;;;;;;5.30;3.00;;;;;;;13.02;100.00;100772.91;678616;29;1171;-62
2023/08/05 01:24:52;;;;;;;5.32;3.33;;;;;;;13.02;100.00;100772.03;678050;29;2190;-62
2023/08/05 01:25:18;;;;;;;5.13;3.25;;;;;;;13.01;100.00;100773.78;673617;29;4652;-63
2023/08/05 01:25:39;;;;;;;6.35;3.60;;;;;;;12.97;100.00;100777.34;675989;29;1364;-63
2023/08/05 01:26:01;;;;;;;6.05;3.30;;;;;;;12.93;100.00;100776.53;673730;29;1495;-62
2023/08/05 01:26:22;;;;;;;5.88;3.30;;;;;;;12.89;100.00;100777.44;671576;29;1794;-63
2023/08/05 01:26:44;;;;;;;6.30;3.28;;;;;;;12.88;100.00;100777.47;673053;29;1024;-62
2023/08/05 01:27:07;;;;;;;5.63;3.40;;;;;;;12.86;100.00;100772.25;672808;29;1562;-62
2023/08/05 01:27:28;;;;;;;5.63;3.50;;;;;;;12.85;100.00;100774.88;675236;29;1264;-61
2023/08/05 01:27:50;;;;;;;5.65;3.58;;;;;;;12.87;100.00;100779.22;678564;29;834;-62
2023/08/05 01:28:11;;;;;;;6.93;3.47;;;;;;;12.91;100.00;100780.06;675443;29;850;-61
2023/08/05 01:28:33;;;;;;;5.22;3.38;;;;;;;12.91;100.00;100772.19;678002;29;5367;-62
2023/08/05 01:28:54;;;;;;;5.32;3.20;;;;;;;12.91;100.00;100778.28;677829;29;1794;-61
2023/08/05 01:29:15;;;;;;;6.38;3.20;;;;;;;12.91;100.00;100775.66;676319;29;2349;-62
2023/08/05 01:29:35;;;;;;;6.27;3.30;;;;;;;12.91;100.00;100775.66;676815;29;1035;-62
2023/08/05 01:29:58;;;;;;;5.47;3.42;;;;;;;12.90;100.00;100773.94;677278;29;1003;-62
2023/08/05 01:30:22;;;;;;;4.90;3.20;;;;;;;12.89;100.00;100777.44;678953;28;1749;-61
2023/08/05 01:30:44;;;;;;;5.10;3.38;;;;;;;12.87;100.00;100776.59;679339;29;1907;-62
2023/08/05 01:31:06;;;;;;;5.45;3.30;;;;;;;12.87;100.00;100768.72;680357;28;921;-61
2023/08/05 01:31:28;;;;;;;6.57;3.47;;;;;;;12.86;100.00;100774.88;676756;28;4931;-62
2023/08/05 01:31:51;;;;;;;5.07;3.50;;;;;;;12.86;100.00;100772.25;677999;29;1010;-62
2023/08/05 01:32:14;;;;;;;6.30;3.50;;;;;;;12.87;100.00;100771.34;677921;29;1871;-62
2023/08/05 01:32:37;;;;;;;6.32;3.40;;;;;;;12.88;100.00;100774.84;678344;29;994;-61
2023/08/05 01:33:01;;;;;;;5.13;3.10;;;;;;;12.87;100.00;100773.97;678713;29;2407;-62
2023/08/05 01:33:22;;;;;;;5.97;3.13;;;;;;;12.86;100.00;100772.25;675741;29;2324;-63
2023/08/05 01:33:43;;;;;;;7.25;3.40;;;;;;;12.87;100.00;100768.72;674871;29;1245;-61
2023/08/05 01:34:04;;;;;;;5.63;3.20;;;;;;;12.87;100.00;100773.09;673347;29;870;-62
2023/08/05 01:34:26;;;;;;;6.10;3.40;;;;;;;12.86;100.00;100777.50;673689;29;4401;-61
2023/08/05 01:34:49;;;;;;;5.93;3.50;;;;;;;12.87;100.00;100771.34;675831;29;846;-63
2023/08/05 01:35:10;;;;;;;6.80;3.30;;;;;;;12.86;100.00;100766.13;675520;29;941;-63
2023/08/05 01:35:31;;;;;;;7.43;3.47;;;;;;;12.84;100.00;100771.38;675031;29;2585;-64
2023/08/05 01:35:51;;;;;;;7.25;3.70;;;;;;;12.82;100.00;100770.56;677974;29;1437;-63
2023/08/05 01:36:19;;;;;;;6.20;3.47;;;;;;;12.80;100.00;100769.69;677498;29;2238;-63
2023/08/05 01:36:40;;;;;;;6.63;3.30;;;;;;;12.78;100.00;100774.94;678247;29;1732;-63
2023/08/05 01:37:00;;;;;;;5.80;3.13;;;;;;;12.75;100.00;100767.13;676745;29;1408;-63
2023/08/05 01:37:23;;;;;;;5.00;3.10;;;;;;;12.76;100.00;100781.09;674596;29;4659;-62
2023/08/05 01:37:43;;;;;;;5.13;3.10;;;;;;;12.73;100.00;100770.66;676309;29;3205;-63
2023/08/05 01:38:04;;;;;;;4.88;3.22;;;;;;;12.74;100.00;100772.41;672721;29;1265;-62
2023/08/05 01:38:24;;;;;;;7.23;3.77;;;;;;;12.73;100.00;100771.50;669340;29;1758;-62
2023/08/05 01:38:46;;;;;;;6.70;3.40;;;;;;;12.70;100.00;100766.31;673859;29;870;-63
2023/08/05 01:39:07;;;;;;;6.28;3.42;;;;;;;12.70;100.00;100776.78;675320;29;1425;-62
2023/08/05 01:39:28;;;;;;;5.80;3.22;;;;;;;12.71;100.00;100767.16;676935;29;2489;-63
2023/08/05 01:39:48;;;;;;;5.13;3.10;;;;;;;12.67;100.00;100766.34;677834;29;1227;-62
2023/08/05 01:40:09;;;;;;;5.30;3.28;;;;;;;12.67;100.00;100768.09;677642;29;1272;-62
2023/08/05 01:40:29;;;;;;;6.05;3.42;;;;;;;12.66;100.00;100775.09;674754;29;4403;-62
2023/08/05 01:40:50;;;;;;;6.20;3.70;;;;;;;12.67;100.00;100768.09;674721;29;1238;-62